createdAt,value
2023-02-19T00:00:00.641Z,99305.02
2023-02-19T00:02:29.223Z,99307.08
2023-02-19T00:04:57.921Z,99304.28
2023-02-19T00:07:26.369Z,99300.09
2023-02-19T00:09:56.694Z,99300.33
2023-02-19T00:12:25.185Z,99300.48
2023-02-19T00:14:55.318Z,99302.88
2023-02-19T00:17:23.677Z,99302.51
2023-02-19T00:19:51.849Z,99301.84
2023-02-19T00:22:19.925Z,99300.72
2023-02-19T00:24:49.334Z,99302.99
2023-02-19T00:27:17.523Z,99299.39
2023-02-19T00:29:46.197Z,99298.80
2023-02-19T00:32:17.112Z,99296.09
2023-02-19T00:34:45.531Z,99295.80
2023-02-19T00:37:13.690Z,99295.69
2023-02-19T00:39:42.267Z,99298.10
2023-02-19T00:42:10.342Z,99297.75
2023-02-19T00:44:39.400Z,99294.22
2023-02-19T00:47:07.717Z,99299.05
2023-02-19T00:49:37.023Z,99299.31
2023-02-19T00:52:05.630Z,99297.88
2023-02-19T00:54:33.980Z,99300.14
2023-02-19T00:57:02.135Z,99291.02
2023-02-19T00:59:32.197Z,99290.50
2023-02-19T01:02:00.550Z,99297.34
2023-02-19T01:04:28.733Z,99294.30
2023-02-19T01:06:58.028Z,99303.90
2023-02-19T01:09:26.303Z,99298.94
2023-02-19T01:11:54.886Z,99306.08
2023-02-19T01:14:23.368Z,99305.93
2023-02-19T01:16:51.976Z,99310.70
2023-02-19T01:19:20.160Z,99314.39
2023-02-19T01:21:48.560Z,99312.40
2023-02-19T01:24:18.624Z,99314.12
2023-02-19T01:26:47.398Z,99312.64
2023-02-19T01:36:52.641Z,99318.24
2023-02-19T01:39:20.880Z,99318.95
2023-02-19T01:41:49.216Z,99321.22
2023-02-19T01:44:18.764Z,99324.37
2023-02-19T01:46:48.737Z,99322.89
2023-02-19T01:49:28.556Z,99323.45
2023-02-19T01:52:22.521Z,99323.34
2023-02-19T01:54:50.795Z,99322.78
2023-02-19T01:57:24.741Z,99325.97
2023-02-19T01:59:55.419Z,99324.83
2023-02-19T02:02:25.313Z,99321.51
2023-02-19T02:04:53.366Z,99323.98
2023-02-19T02:07:40.850Z,99324.81
2023-02-19T02:10:21.212Z,99324.80
2023-02-19T02:12:57.606Z,99324.26
2023-02-19T02:15:37.982Z,99324.78
2023-02-19T02:18:11.052Z,99328.76
2023-02-19T02:20:42.388Z,99326.08
2023-02-19T02:23:35.952Z,99333.80
2023-02-19T02:26:22.474Z,99329.20
2023-02-19T02:28:59.946Z,99335.92
2023-02-19T02:31:53.076Z,99342.17
2023-02-19T02:34:24.966Z,99347.13
2023-02-19T02:36:54.676Z,99349.75
2023-02-19T02:39:25.492Z,99355.05
2023-02-19T02:42:17.452Z,99360.02
2023-02-19T02:45:27.905Z,99361.85
2023-02-19T02:47:57.050Z,99363.62
2023-02-19T02:50:27.308Z,99368.40
2023-02-19T02:53:23.463Z,99371.23
2023-02-19T02:55:52.316Z,99371.92
2023-02-19T02:58:21.003Z,99376.98
2023-02-19T03:01:15.404Z,99382.19
2023-02-19T03:03:44.602Z,99386.20
2023-02-19T03:06:12.663Z,99388.63
2023-02-19T03:09:02.617Z,99397.66
2023-02-19T03:11:52.474Z,99398.19
2023-02-19T03:14:54.354Z,99396.80
2023-02-19T03:18:14.468Z,99399.41
2023-02-19T03:20:45.753Z,99397.55
2023-02-19T03:23:15.287Z,99395.90
2023-02-19T03:26:03.526Z,99400.48
2023-02-19T03:28:59.898Z,99403.80
2023-02-19T03:31:30.138Z,99404.23
2023-02-19T03:34:02.969Z,99402.17
2023-02-19T03:36:36.179Z,99404.53
2023-02-19T03:39:08.860Z,99404.52
2023-02-19T03:41:47.860Z,99405.70
2023-02-19T03:44:55.365Z,99404.50
2023-02-19T03:47:29.169Z,99397.41
2023-02-19T03:50:22.956Z,99401.84
2023-02-19T03:53:11.085Z,99400.12
2023-02-19T03:55:54.622Z,99393.39
2023-02-19T03:58:41.948Z,99395.65
2023-02-19T04:01:17.023Z,99397.52
2023-02-19T04:03:54.511Z,99401.04
2023-02-19T04:06:26.647Z,99405.56
2023-02-19T04:08:57.667Z,99410.01
2023-02-19T04:11:27.426Z,99409.36
2023-02-19T04:14:07.375Z,99413.05
2023-02-19T04:16:37.388Z,99409.27
2023-02-19T04:19:09.333Z,99414.00
2023-02-19T04:21:38.738Z,99420.02
2023-02-19T04:24:18.181Z,99419.70
2023-02-19T04:26:46.257Z,99416.21
2023-02-19T04:29:14.448Z,99416.79
2023-02-19T04:31:42.825Z,99414.73
2023-02-19T04:34:11.018Z,99415.11
2023-02-19T04:36:39.486Z,99419.66
2023-02-19T04:39:08.575Z,99415.40
2023-02-19T04:41:37.038Z,99416.42
2023-02-19T04:44:05.516Z,99418.11
2023-02-19T04:46:34.037Z,99419.61
2023-02-19T04:49:02.482Z,99417.73
2023-02-19T04:51:30.857Z,99421.53
2023-02-19T04:53:58.970Z,99426.98
2023-02-19T04:56:27.306Z,99428.20
2023-02-19T04:58:55.888Z,99429.98
2023-02-19T05:01:25.216Z,99433.77
2023-02-19T05:03:53.254Z,99430.45
2023-02-19T05:06:21.360Z,99433.39
2023-02-19T05:08:50.056Z,99432.09
2023-02-19T05:11:18.612Z,99439.90
2023-02-19T05:13:51.210Z,99440.89
2023-02-19T05:16:19.471Z,99446.33
2023-02-19T05:18:47.623Z,99448.96
2023-02-19T05:21:16.217Z,99449.69
2023-02-19T05:23:44.495Z,99452.31
2023-02-19T05:26:17.916Z,99450.05
2023-02-19T05:28:47.534Z,99450.95
2023-02-19T05:31:16.083Z,99450.45
2023-02-19T05:33:45.876Z,99446.27
2023-02-19T05:36:14.683Z,99448.84
2023-02-19T05:38:43.516Z,99449.09
2023-02-19T05:41:15.915Z,99452.63
2023-02-19T05:43:45.046Z,99455.08
2023-02-19T05:46:14.664Z,99458.30
2023-02-19T05:48:43.655Z,99454.84
2023-02-19T05:51:14.268Z,99460.18
2023-02-19T05:53:42.909Z,99459.32
2023-02-19T05:56:20.924Z,99461.98
2023-02-19T05:58:50.070Z,99461.77
2023-02-19T06:01:19.321Z,99460.55
2023-02-19T06:03:47.483Z,99465.52
2023-02-19T06:06:17.681Z,99465.60
2023-02-19T06:08:45.845Z,99465.27
2023-02-19T06:11:14.323Z,99466.22
2023-02-19T06:13:42.859Z,99464.62
2023-02-19T06:16:11.224Z,99464.58
2023-02-19T06:18:43.147Z,99459.01
2023-02-19T06:21:12.293Z,99458.33
2023-02-19T06:23:40.751Z,99460.89
2023-02-19T06:26:13.713Z,99463.96
2023-02-19T06:28:42.110Z,99471.80
2023-02-19T06:31:11.067Z,99473.95
2023-02-19T06:33:43.164Z,99476.30
2023-02-19T06:36:16.576Z,99479.11
2023-02-19T06:38:44.864Z,99482.63
2023-02-19T06:41:20.723Z,99486.51
2023-02-19T06:43:49.295Z,99481.12
2023-02-19T06:46:17.670Z,99480.84
2023-02-19T06:48:46.257Z,99484.10
2023-02-19T06:51:19.657Z,99483.45
2023-02-19T06:53:47.704Z,99482.86
2023-02-19T06:56:24.045Z,99487.90
2023-02-19T06:58:53.803Z,99483.45
2023-02-19T07:01:23.518Z,99488.66
2023-02-19T07:03:52.958Z,99490.54
2023-02-19T07:06:22.217Z,99490.04
2023-02-19T07:08:51.594Z,99486.10
2023-02-19T07:11:20.044Z,99492.90
2023-02-19T07:13:48.224Z,99493.51
2023-02-19T07:16:18.180Z,99493.98
2023-02-19T07:18:46.578Z,99497.45
2023-02-19T07:21:16.484Z,99497.50
2023-02-19T07:23:44.744Z,99493.75
2023-02-19T07:26:15.285Z,99498.60
2023-02-19T07:28:44.162Z,99498.83
2023-02-19T07:31:12.928Z,99499.17
2023-02-19T07:33:44.319Z,99498.42
2023-02-19T07:36:12.786Z,99502.79
2023-02-19T07:38:41.405Z,99508.13
2023-02-19T07:41:10.150Z,99512.06
2023-02-19T07:43:38.746Z,99513.95
2023-02-19T07:46:09.710Z,99515.25
2023-02-19T07:48:38.681Z,99515.46
2023-02-19T07:51:08.785Z,99522.73
2023-02-19T07:53:37.014Z,99528.27
2023-02-19T07:56:07.398Z,99529.26
2023-02-19T07:58:35.688Z,99533.79
2023-02-19T08:01:18.517Z,99532.27
2023-02-19T08:03:49.432Z,99536.28
2023-02-19T08:06:18.747Z,99535.39
2023-02-19T08:08:46.973Z,99527.63
2023-02-19T08:11:38.216Z,99529.75
2023-02-19T08:14:07.356Z,99529.23
2023-02-19T08:16:42.940Z,99520.55
2023-02-19T08:19:12.382Z,99517.92
2023-02-19T08:21:40.646Z,99511.41
2023-02-19T08:24:15.196Z,99510.80
2023-02-19T08:26:43.650Z,99513.79
2023-02-19T08:29:11.826Z,99520.79
2023-02-19T08:31:40.161Z,99517.66
2023-02-19T08:34:08.463Z,99521.23
2023-02-19T08:36:39.436Z,99516.21
2023-02-19T08:39:08.273Z,99520.31
2023-02-19T08:41:36.722Z,99526.00
2023-02-19T08:44:05.383Z,99523.79
2023-02-19T08:46:35.970Z,99524.58
2023-02-19T08:49:04.494Z,99527.39
2023-02-19T08:51:32.773Z,99530.73
2023-02-19T08:54:03.367Z,99531.02
2023-02-19T08:56:31.927Z,99531.90
2023-02-19T08:59:00.168Z,99530.13
2023-02-19T09:01:28.928Z,99522.80
2023-02-19T09:03:59.687Z,99523.21
2023-02-19T09:06:28.004Z,99522.87
2023-02-19T09:08:58.396Z,99527.33
2023-02-19T09:11:26.971Z,99529.23
2023-02-19T09:13:56.120Z,99533.26
2023-02-19T09:16:24.861Z,99531.92
2023-02-19T09:18:53.289Z,99531.52
2023-02-19T09:21:22.478Z,99536.99
2023-02-19T09:23:50.922Z,99531.45
2023-02-19T09:26:19.357Z,99529.42
2023-02-19T09:28:47.578Z,99524.48
2023-02-19T09:31:16.661Z,99520.85
2023-02-19T09:33:47.016Z,99526.36
2023-02-19T09:36:16.278Z,99524.96
2023-02-19T09:38:44.918Z,99522.39
2023-02-19T09:41:33.124Z,99529.83
2023-02-19T09:44:02.966Z,99524.54
2023-02-19T09:46:33.498Z,99519.71
2023-02-19T09:49:06.872Z,99519.55
2023-02-19T09:51:36.749Z,99512.66
2023-02-19T09:54:07.854Z,99507.59
2023-02-19T09:56:37.228Z,99503.49
2023-02-19T09:59:05.736Z,99503.74
2023-02-19T10:01:34.830Z,99508.91
2023-02-19T10:04:03.101Z,99510.10
2023-02-19T10:06:34.263Z,99506.79
2023-02-19T10:09:22.817Z,99509.84
2023-02-19T10:11:54.951Z,99510.04
2023-02-19T10:14:30.500Z,99514.36
2023-02-19T10:17:04.721Z,99510.82
2023-02-19T10:19:34.138Z,99521.14
2023-02-19T10:22:03.105Z,99518.21
2023-02-19T10:24:31.876Z,99515.21
2023-02-19T10:27:00.497Z,99516.03
2023-02-19T10:29:28.759Z,99514.23
2023-02-19T10:32:18.911Z,99516.88
2023-02-19T10:34:47.619Z,99516.33
2023-02-19T10:37:17.430Z,99515.05
2023-02-19T10:39:47.984Z,99515.41
2023-02-19T10:42:18.005Z,99510.31
2023-02-19T10:44:47.951Z,99509.88
2023-02-19T10:47:18.439Z,99501.44
2023-02-19T10:49:48.976Z,99492.09
2023-02-19T10:52:20.623Z,99487.45
2023-02-19T10:55:36.018Z,99482.03
2023-02-19T10:58:26.824Z,99487.89
2023-02-19T11:01:15.892Z,99485.52
2023-02-19T11:03:45.286Z,99484.02
2023-02-19T11:06:14.908Z,99486.59
2023-02-19T11:09:16.043Z,99487.14
2023-02-19T11:11:45.646Z,99492.71
2023-02-19T11:14:24.405Z,99494.94
2023-02-19T11:16:56.230Z,99502.66
2023-02-19T11:19:27.740Z,99508.59
2023-02-19T11:21:56.501Z,99512.58
2023-02-19T11:24:28.440Z,99516.48
2023-02-19T11:26:58.042Z,99522.48
2023-02-19T11:29:28.899Z,99523.59
2023-02-19T11:31:57.387Z,99528.48
2023-02-19T11:34:29.968Z,99530.61
2023-02-19T11:37:18.091Z,99528.70
2023-02-19T11:39:50.600Z,99527.02
2023-02-19T11:42:58.810Z,99513.67
2023-02-19T11:45:34.127Z,99511.73
2023-02-19T11:48:17.571Z,99510.64
2023-02-19T11:51:11.604Z,99509.84
2023-02-19T11:53:56.588Z,99501.37
2023-02-19T11:56:33.903Z,99497.86
2023-02-19T11:59:02.186Z,99501.98
2023-02-19T12:02:08.155Z,99505.67
2023-02-19T12:05:07.795Z,99515.61
2023-02-19T12:07:47.888Z,99522.92
2023-02-19T12:10:29.658Z,99524.60
2023-02-19T12:13:04.765Z,99528.14
2023-02-19T12:15:51.743Z,99529.61
2023-02-19T12:18:39.376Z,99529.30
2023-02-19T12:21:35.608Z,99521.92
2023-02-19T12:32:15.912Z,99511.52
2023-02-19T12:35:15.673Z,99507.16
2023-02-19T12:37:56.702Z,99511.58
2023-02-19T12:40:40.751Z,99512.58
2023-02-19T12:43:20.342Z,99505.33
2023-02-19T12:46:17.278Z,99503.30
2023-02-19T12:48:49.000Z,99492.23
2023-02-19T12:51:49.148Z,99484.81
2023-02-19T12:54:25.722Z,99484.21
2023-02-19T12:56:55.746Z,99488.88
2023-02-19T12:59:29.575Z,99492.11
2023-02-19T13:02:21.077Z,99488.40
2023-02-19T13:05:05.310Z,99493.88
2023-02-19T13:07:44.924Z,99489.45
2023-02-19T13:10:25.822Z,99496.59
2023-02-19T13:12:55.223Z,99494.88
2023-02-19T13:15:42.753Z,99500.29
2023-02-19T13:18:20.426Z,99508.89
2023-02-19T13:20:49.071Z,99517.20
2023-02-19T13:23:56.169Z,99517.52
2023-02-19T13:26:50.576Z,99523.04
2023-02-19T13:29:37.116Z,99526.83
2023-02-19T13:32:39.096Z,99529.13
2023-02-19T13:35:23.869Z,99529.58
2023-02-19T13:37:52.224Z,99529.05
2023-02-19T13:40:35.496Z,99534.48
2023-02-19T13:43:08.521Z,99534.41
2023-02-19T13:45:44.028Z,99535.85
2023-02-19T13:48:31.866Z,99535.19
2023-02-19T13:51:24.569Z,99531.28
2023-02-19T13:53:55.822Z,99532.85
2023-02-19T13:56:30.209Z,99536.23
2023-02-19T13:59:24.634Z,99540.33
2023-02-19T14:01:55.879Z,99536.80
2023-02-19T14:04:42.588Z,99530.27
2023-02-19T14:07:10.702Z,99525.27
2023-02-19T14:17:40.843Z,99516.41
2023-02-19T14:20:09.396Z,99512.61
2023-02-19T14:22:47.216Z,99510.70
2023-02-19T14:25:28.490Z,99509.48
2023-02-19T14:28:06.529Z,99511.57
2023-02-19T14:30:35.935Z,99512.14
2023-02-19T14:33:11.745Z,99509.41
2023-02-19T14:35:44.815Z,99511.07
2023-02-19T14:38:37.501Z,99512.25
2023-02-19T14:41:12.722Z,99513.35
2023-02-19T14:43:41.494Z,99518.27
2023-02-19T14:46:24.089Z,99519.48
2023-02-19T14:48:52.521Z,99526.73
2023-02-19T14:51:31.853Z,99521.21
2023-02-19T14:54:00.254Z,99518.20
2023-02-19T14:56:32.609Z,99518.31
2023-02-19T14:59:22.489Z,99520.23
2023-02-19T15:01:56.077Z,99519.05
2023-02-19T15:04:31.453Z,99522.92
2023-02-19T15:07:01.184Z,99522.25
2023-02-19T15:09:36.227Z,99519.10
2023-02-19T15:12:04.766Z,99520.02
2023-02-19T15:14:33.373Z,99523.13
2023-02-19T15:17:04.454Z,99526.58
2023-02-19T15:19:35.448Z,99523.72
2023-02-19T15:22:04.132Z,99529.47
2023-02-19T15:24:33.133Z,99528.19
2023-02-19T15:27:02.727Z,99525.77
2023-02-19T15:29:30.929Z,99526.46
2023-02-19T15:32:00.540Z,99524.91
2023-02-19T15:34:30.336Z,99525.17
2023-02-19T15:37:06.900Z,99531.64
2023-02-19T15:39:45.438Z,99533.39
2023-02-19T15:42:26.106Z,99538.62
2023-02-19T15:45:00.500Z,99539.48
2023-02-19T15:47:33.609Z,99537.63
2023-02-19T15:50:18.769Z,99544.10
2023-02-19T15:53:00.560Z,99546.01
2023-02-19T15:55:28.836Z,99551.36
2023-02-19T15:58:09.981Z,99554.14
2023-02-19T16:00:45.298Z,99562.45
2023-02-19T16:03:35.320Z,99558.85
2023-02-19T16:06:11.606Z,99560.64
2023-02-19T16:09:04.864Z,99556.45
2023-02-19T16:11:38.217Z,99558.33
2023-02-19T16:14:16.885Z,99552.83
2023-02-19T16:16:46.910Z,99556.11
2023-02-19T16:19:23.889Z,99553.17
2023-02-19T16:21:52.416Z,99553.67
2023-02-19T16:24:31.440Z,99553.68
2023-02-19T16:27:07.707Z,99557.55
2023-02-19T16:29:36.760Z,99557.98
2023-02-19T16:32:15.782Z,99562.40
2023-02-19T16:34:47.092Z,99562.77
2023-02-19T16:37:30.432Z,99561.21
2023-02-19T16:40:24.865Z,99561.42
2023-02-19T16:42:55.300Z,99563.53
2023-02-19T16:45:34.066Z,99559.00
2023-02-19T16:48:02.384Z,99561.45
2023-02-19T16:50:32.005Z,99564.70
2023-02-19T16:53:03.433Z,99564.32
2023-02-19T16:55:34.916Z,99563.45
2023-02-19T16:58:03.378Z,99564.03
2023-02-19T17:00:31.985Z,99566.55
2023-02-19T17:03:09.373Z,99563.13
2023-02-19T17:05:38.448Z,99565.17
2023-02-19T17:08:34.472Z,99562.48
2023-02-19T17:11:10.484Z,99561.84
2023-02-19T17:13:41.374Z,99558.20
2023-02-19T17:16:17.882Z,99554.33
2023-02-19T17:18:49.942Z,99556.77
2023-02-19T17:21:20.439Z,99556.84
2023-02-19T17:23:49.441Z,99551.88
2023-02-19T17:26:19.838Z,99552.33
2023-02-19T17:28:48.850Z,99550.57
2023-02-19T17:31:17.174Z,99555.15
2023-02-19T17:33:45.623Z,99558.60
2023-02-19T17:36:18.831Z,99555.54
2023-02-19T17:38:47.009Z,99555.81
2023-02-19T17:41:15.272Z,99556.42
2023-02-19T17:43:43.631Z,99557.27
2023-02-19T17:46:18.836Z,99553.92
2023-02-19T17:48:46.943Z,99553.98
2023-02-19T17:51:15.233Z,99554.05
2023-02-19T17:53:43.809Z,99556.11
2023-02-19T17:56:16.389Z,99555.15
2023-02-19T17:58:44.646Z,99554.98
2023-02-19T18:01:13.309Z,99558.95
2023-02-19T18:03:41.869Z,99556.89
2023-02-19T18:06:10.312Z,99558.14
2023-02-19T18:08:38.762Z,99557.98
2023-02-19T18:11:10.575Z,99556.36
2023-02-19T18:13:39.648Z,99555.80
2023-02-19T18:16:08.443Z,99552.33
2023-02-19T18:18:37.538Z,99551.92
2023-02-19T18:21:08.592Z,99550.30
2023-02-19T18:23:37.371Z,99549.48
2023-02-19T18:26:10.501Z,99548.41
2023-02-19T18:28:39.874Z,99544.41
2023-02-19T18:31:11.249Z,99546.02
2023-02-19T18:33:40.408Z,99548.71
2023-02-19T18:36:12.176Z,99546.63
2023-02-19T18:38:40.543Z,99545.90
2023-02-19T18:41:13.274Z,99545.88
2023-02-19T18:43:44.988Z,99551.46
2023-02-19T18:46:13.434Z,99548.64
2023-02-19T18:48:43.793Z,99545.02
2023-02-19T18:51:12.675Z,99543.00
2023-02-19T18:53:43.933Z,99544.27
2023-02-19T18:56:12.004Z,99539.15
2023-02-19T18:58:41.511Z,99539.19
2023-02-19T19:01:10.295Z,99542.08
2023-02-19T19:03:38.879Z,99544.31
2023-02-19T19:06:07.435Z,99540.69
2023-02-19T19:08:35.637Z,99540.48
2023-02-19T19:11:05.152Z,99542.95
2023-02-19T19:13:34.856Z,99541.42
2023-02-19T19:16:05.859Z,99544.23
2023-02-19T19:18:38.263Z,99543.02
2023-02-19T19:21:06.781Z,99538.71
2023-02-19T19:23:35.754Z,99539.92
2023-02-19T19:26:07.307Z,99541.67
2023-02-19T19:28:35.491Z,99541.73
2023-02-19T19:31:03.825Z,99542.93
2023-02-19T19:33:34.746Z,99543.57
2023-02-19T19:36:03.401Z,99542.17
2023-02-19T19:38:32.786Z,99544.64
2023-02-19T19:41:01.369Z,99544.63
2023-02-19T19:43:33.075Z,99547.00
2023-02-19T19:46:03.275Z,99543.60
2023-02-19T19:48:35.617Z,99545.55
2023-02-19T19:51:03.897Z,99542.98
2023-02-19T19:53:32.047Z,99544.08
2023-02-19T19:56:01.380Z,99544.79
2023-02-19T19:58:30.363Z,99543.89
2023-02-19T20:01:02.025Z,99544.75
2023-02-19T20:03:31.725Z,99542.15
2023-02-19T20:06:01.235Z,99539.88
2023-02-19T20:08:30.660Z,99535.51
2023-02-19T20:10:59.018Z,99536.02
2023-02-19T20:13:30.879Z,99541.32
2023-02-19T20:16:06.454Z,99538.95
2023-02-19T20:18:34.824Z,99541.36
2023-02-19T20:21:04.105Z,99543.63
2023-02-19T20:23:33.409Z,99543.44
2023-02-19T20:26:01.895Z,99540.92
2023-02-19T20:28:30.325Z,99541.55
2023-02-19T20:30:59.510Z,99540.92
2023-02-19T20:33:27.763Z,99540.24
2023-02-19T20:35:57.162Z,99543.77
2023-02-19T20:38:25.935Z,99543.45
2023-02-19T20:40:55.036Z,99544.88
2023-02-19T20:43:23.444Z,99544.03
2023-02-19T20:45:52.588Z,99548.60
2023-02-19T20:48:22.139Z,99545.09
2023-02-19T20:50:50.805Z,99549.76
2023-02-19T20:53:19.137Z,99553.25
2023-02-19T20:55:47.320Z,99561.30
2023-02-19T20:58:15.513Z,99556.19
2023-02-19T21:00:44.455Z,99551.73
2023-02-19T21:11:09.788Z,99553.05
2023-02-19T21:13:37.553Z,99552.61
2023-02-19T21:16:05.159Z,99557.28
2023-02-19T21:18:32.172Z,99563.14
2023-02-19T21:20:59.010Z,99562.31
2023-02-19T21:23:25.954Z,99567.48
2023-02-19T21:25:54.556Z,99573.36
2023-02-19T21:28:21.900Z,99575.38
2023-02-19T21:30:48.733Z,99579.23
2023-02-19T21:33:16.155Z,99578.77
2023-02-19T21:35:42.934Z,99586.11
2023-02-19T21:38:09.678Z,99587.13
2023-02-19T21:40:37.078Z,99595.23
2023-02-19T21:43:04.463Z,99596.41
2023-02-19T21:45:31.401Z,99597.80
2023-02-19T21:55:42.930Z,99591.05
2023-02-19T21:58:18.418Z,99591.63
2023-02-19T22:00:46.603Z,99595.05
2023-02-19T22:03:16.224Z,99595.30
2023-02-19T22:05:44.885Z,99589.05
2023-02-19T22:08:15.769Z,99588.25
2023-02-19T22:10:46.147Z,99593.54
2023-02-19T22:13:14.506Z,99593.66
2023-02-19T22:15:46.136Z,99597.44
2023-02-19T22:18:14.356Z,99599.23
2023-02-19T22:20:42.681Z,99604.95
2023-02-19T22:23:11.323Z,99605.33
2023-02-19T22:25:42.056Z,99609.79
2023-02-19T22:28:10.780Z,99605.67
2023-02-19T22:30:39.128Z,99603.77
2023-02-19T22:33:07.466Z,99605.95
2023-02-19T22:35:35.577Z,99600.30
2023-02-19T22:38:03.751Z,99599.08
2023-02-19T22:40:31.926Z,99602.65
2023-02-19T22:43:00.300Z,99602.14
2023-02-19T22:45:28.549Z,99602.14
2023-02-19T22:47:56.861Z,99602.52
2023-02-19T22:50:26.676Z,99603.35
2023-02-19T22:52:55.693Z,99607.52
2023-02-19T22:55:24.352Z,99608.45
2023-02-19T22:57:54.355Z,99607.65
2023-02-19T23:00:23.162Z,99607.87
2023-02-19T23:02:52.175Z,99606.47
2023-02-19T23:05:22.894Z,99603.23
2023-02-19T23:07:51.677Z,99603.05
2023-02-19T23:10:23.539Z,99599.98
2023-02-19T23:12:51.633Z,99604.21
2023-02-19T23:15:21.232Z,99600.78
2023-02-19T23:17:49.339Z,99602.09
2023-02-19T23:20:17.675Z,99599.63
2023-02-19T23:22:45.745Z,99597.54
2023-02-19T23:25:14.246Z,99595.86
2023-02-19T23:27:43.326Z,99594.95
2023-02-19T23:30:12.242Z,99598.67
2023-02-19T23:32:41.315Z,99601.45
2023-02-19T23:35:09.488Z,99607.64
2023-02-19T23:37:37.591Z,99609.52
2023-02-19T23:40:07.055Z,99610.93
2023-02-19T23:42:35.746Z,99614.41
2023-02-19T23:45:04.466Z,99615.49
2023-02-19T23:47:34.857Z,99617.69
2023-02-19T23:50:03.180Z,99612.27
2023-02-19T23:52:31.820Z,99613.83
2023-02-19T23:55:00.084Z,99611.60
2023-02-19T23:57:28.685Z,99612.77
2023-02-19T23:59:57.146Z,99611.88
